AREA preflight bulletin
Updated "live" 23 May 2019, 12:59

back to the map




METAR og TAF


THULE (MIL)
  AKTUEL BGTL 231156Z AUTO 00000KT 9999 CLR 02/02 A3017 RMK AO2 SLP202 T00180017 10018 21005 57012 TSNO ?=
  TAF 24 timer BGTL 231025Z 2310/2415 VRB06KT 9999 FEW035 SCT080 620906 QNH3003INS BECMG 2320/2321 VRB06KT 9999 SCT200 QNH2998INS BECMG 2401/2402 VRB06KT 9999 SCT100 QNH2994INS BECMG 2411/2412 04009KT 9999 BKN060 620604 QNH2993INS TX04/2318Z TNM01/2406Z=

QAANAAQ
  AKTUEL BGQQ 231250Z VRB01KT 9999 SKC 03/M03 Q1022=
  TAF 9 timer BGQQ 231200Z 2312/2319 VRB03KT 9999 FEW200=

UPERNAVIK
  AKTUEL BGUK 231250Z 08005KT 040V110 0200 FZFG BKN001 M02/M02 Q1020=
  TAF 9 timer BGUK 231200Z 2312/2321 08008KT 0100 FZFG VV001 TEMPO 2312/2314 2000 BCFG BKN005 BECMG 2314/2316 9999 NSW FEW004 TEMPO 2316/2321 2000 BCFG BKN004=

ILULISSAT
  AKTUEL BGJN 231250Z 10011KT 080V140 9999 FEW180 12/M05 Q1018=
  TAF 9 timer BGJN 231127Z 2312/2321 VRB05KT 9999 FEW180=

KANGERLUSSUAQ
  AKTUEL BGSF 231250Z AUTO 08007KT 9999NDV NCD 14/M03 Q1017=
  TAF 24 timer BGSF 231100Z 2312/2418 06008KT 9999 FEW060 BECMG 2312/2314 24010KT BECMG 2404/2406 06010KT=


SIGMETS:

SONDRESTROM FIR
  SIGMET BGGL SIGMET 3 VALID 230830/231230 BGSF- BGGL NUUK FIR SEV TURB FCST AT 0830Z WI N5954 W04504 - N6049 W04409 - N6049 W04231 - N5932 W04320 - N5954 W04504 SFC/FL110 STNR NC=

SONDRESTROM FIR
  SIGMET BGGL SIGMET 4 VALID 231230/231630 BGSF- BGGL NUUK FIR SEV TURB FCST AT 1230Z WI N5954 W04504 - N6049 W04409 - N6049 W04231 - N5932 W04320 - N5954 W04504 SFC/FL110 STNR NC=

NOTAM/SNOWTAM for operationel use has to be confirmed with the
nearest AIS Briefing Office prior to a flight.

ICAO
BGQQ (QAANAAQ)

FIR
BGGL

Notam_id:
BGB0811/18

valid from:
1810121100

E) SEA RESCUE SERVICE NOT AVAILABLE

valid to:
1907151100




ICAO
BGUK (UPERNAVIK)

FIR
BGGL

Notam_id:
BGB0928/18

valid from:
1812121246

E) SEA RESCUE SERVICE NOT AVBL.

valid to:
1905312000EST




ICAO
BGUK (UPERNAVIK)

FIR
BGGL

Notam_id:
BGB0211/19

valid from:
1905230000

E) TRIGGER NOTAM - PERM AIP AIRAC AMDT 03/19 WEF 23 MAY 2019. CHANGES TO RESCUE EQUIPMENT AND METEOROLOGICAL INFORMATION PROVIDED.

valid to:
1906052359




ICAO
BGUK (UPERNAVIK)

FIR
BGGL

Notam_id:
BGB0145/19

valid from:
1903041251

E) FIRE AND RESCUE CAT. 5 ONLY AVAILBLAE WHEN REQUESTED DUE TO LACK OF STAFF.

valid to:
1912301500




ICAO
BGUK (UPERNAVIK)

FIR
BGGL

Notam_id:
BGB0112/19

valid from:
1902181446

E) SNOWREMOVAL DOWNGRADED, DUE TO LACK OF VEHICLE.

valid to:
1905311400EST


Replacing:
BGB0039/19

ICAO
BGGL (SONDRESTROM FIR)

FIR
BGGL

Notam_id:
BGA0214/19

valid from:
1905010455

E) CHECKLIST YEAR=2017 0269 YEAR=2018 0199 YEAR=2019 0085 0125 0130 0144 0207 0213 LATEST PUBLICATIONS AIP AIRAC AMDT IFR 004/2019 EFFECTIVE DATE 20 JUN 19 AIP AMDT IFR 003/2018 EFFECTIVE DATE 15 MAR 18 AIP SUP IFR 006/2018 EFFECTIVE DATE 18 JUN 18 AIC IFR A001/2019 EFFECTIVE DATE 17 JAN 19

valid to:
1906010455EST


Replacing:
BGA0165/19

ICAO
BGGL (SONDRESTROM FIR)

FIR
BGGL

Notam_id:
BGB0309/19

valid from:
1905010456

E) CHECKLIST YEAR=2017 0740 0930 YEAR=2018 0806 0811 0928 0958 YEAR=2019 0005 0070 0112 0145 0148 0149 0150 0195 0207 0211 0214 0241 0243 0259 0283 0284 0285 0286 0289 0297 0298 0299 0303 0304 0305 0306 0307 0308 LATEST PUBLICATIONS AIP AIRAC AMDT IFR 004/2019 EFFECTIVE DATE 20 JUN 19 AIP AMDT IFR 003/2018 EFFECTIVE DATE 15 MAR 18 AIP SUP IFR 006/2018 EFFECTIVE DATE 18 JUN 18 AIC IFR A001/2019 EFFECTIVE DATE 17 JAN 19

valid to:
1906010456EST


Replacing:
BGB0206/19

ICAO
BGGL (SONDRESTROM FIR)

FIR
BGGL

Notam_id:
BGC0048/19

valid from:
1905010456

E) CHECKLIST YEAR=2018 0079 0081 YEAR=2019 0014 0015 0016 0017 0036 0037 0038 0039 0040 0041 0042 0045 0046 0047 LATEST PUBLICATIONS AIP AIRAC AMDT IFR 004/2019 EFFECTIVE DATE 20 JUN 19 AIP AMDT IFR 003/2018 EFFECTIVE DATE 15 MAR 18 AIP SUP IFR 006/2018 EFFECTIVE DATE 18 JUN 18 AIC IFR A001/2019 EFFECTIVE DATE 17 JAN 19

valid to:
1906010456EST


Replacing:
BGC0031/19

ICAO
BGGL (SONDRESTROM FIR)

FIR
BGGL

Notam_id:
BGA0199/18

valid from:
1805310935

E) GREENLAND AND ADJACENT WATERS ARE CONSIDERED HOSTILE AREAS BY THE CIVIL AVIATION AUTHORITY (TBST). THREE MAJOR REASONS CONTRIBUTE TO DEFINING THE AREA AS HOSTILE: A SAFE FORCED LANDING CANNOT BE ACCOMPLISHED BECAUSE THE SURFACE IS INADEQUATE. THE HELICOPTER OCCUPANTS CANNOT BE ADEQUATELY PROTECTED FROM THE ELEMENTS. SEARCH AND RESCUE RESPONSE/CAPABILITY ARE NOT PROVIDED CONSISTENT WITH ANTICIPATED EXPOSURE.

valid to:
PERM




ICAO
BGJN (ILULISSAT)

FIR
BGGL

Notam_id:
BGB0298/19

valid from:
1906200000

E) TRIGGER NOTAM - PERM AIP AIRAC AMDT 04/19 WEF 20 JUN 2019. CHANGE TO RESCUE AND FIRE FIGHTING SERVICE.

valid to:
1907032359




ICAO
BGJN (ILULISSAT)

FIR
BGGL

Notam_id:
BGB0243/19

valid from:
1905010000

E) AIP GREENLAND AD 2-BGJN-1-6.1 CAT 5, PPR 3 HR BEFORE LNDG OR TKOF FOR ALL TRAFIC ABOVE 10 TONS AND MORE THAN 19 PASSENGERS EXCEPT SCHEDULED TRAFFIC.

valid to:
PERM




ICAO
BGJN (ILULISSAT)

FIR
BGGL

Notam_id:
BGB0214/19

valid from:
1904030934

E) EVERY SECOND APCH LIGHT RWY 07/25 OUT OF SERVICE.

valid to:
1908312359





Copyright Naviair   2003-2016